Time;durP1;ratioP1;P1;durP2;ratioP2;P2;SDS_P1;SDS_P2;PMS_P1;PMS_P2;Temp;Humidity;BMP_temperature;BMP_pressure;BME280_temperature;BME280_humidity;BME280_pressure;Samples;Min_cycle;Max_cycle;Signal;HPM_P1;HPM_P2
2023/11/09 00:00:35;;;;;;;62.42;43.03;;;;;22.00;99374.00;;;;2087530;28;20205;-53
2023/11/09 00:01:36;;;;;;;54.70;39.83;;;;;22.00;99368.00;;;;2083579;28;20274;-54
2023/11/09 00:02:36;;;;;;;56.53;38.97;;;;;22.00;99376.00;;;;2076280;28;20463;-53
2023/11/09 00:03:37;;;;;;;55.90;39.87;;;;;22.00;99357.00;;;;2083989;28;20284;-53
2023/11/09 00:04:37;;;;;;;57.53;39.60;;;;;22.00;99367.00;;;;2083899;28;20288;-53
2023/11/09 00:05:38;;;;;;;53.80;40.10;;;;;22.00;99393.00;;;;2092704;28;20212;-53
2023/11/09 00:06:38;;;;;;;54.07;39.40;;;;;22.00;99362.00;;;;2085247;28;20682;-53
2023/11/09 00:07:39;;;;;;;55.40;38.83;;;;;22.00;99362.00;;;;2075547;28;20684;-53
2023/11/09 00:08:43;;;;;;;49.10;36.70;;;;;22.00;99360.00;;;;2086035;28;20709;-53
2023/11/09 00:09:44;;;;;;;50.38;36.22;;;;;21.90;99356.00;;;;2086405;28;20248;-53
2023/11/09 00:10:44;;;;;;;50.30;37.47;;;;;21.90;99352.00;;;;2085366;28;20308;-52
2023/11/09 00:11:46;;;;;;;47.77;34.70;;;;;21.90;99354.00;;;;2086290;28;20219;-53
2023/11/09 00:12:50;;;;;;;49.92;34.65;;;;;21.90;99346.00;;;;2076276;28;20731;-53
2023/11/09 00:13:50;;;;;;;43.17;32.65;;;;;21.90;99349.00;;;;2078704;28;20299;-52
2023/11/09 00:14:51;;;;;;;49.47;35.77;;;;;21.90;99355.00;;;;2086734;28;20213;-53
2023/11/09 00:15:51;;;;;;;45.67;33.30;;;;;21.90;99347.00;;;;2085612;28;20209;-53
2023/11/09 00:16:53;;;;;;;58.50;38.83;;;;;22.00;99345.00;;;;2086018;28;20213;-54
2023/11/09 00:17:53;;;;;;;55.85;38.30;;;;;22.00;99344.00;;;;2075010;28;22479;-54
2023/11/09 00:18:55;;;;;;;58.53;39.23;;;;;21.90;99348.00;;;;2082906;28;20293;-53
2023/11/09 00:19:56;;;;;;;53.90;37.50;;;;;22.00;99341.00;;;;2082205;28;20224;-53
2023/11/09 00:20:57;;;;;;;45.63;32.30;;;;;22.00;99346.00;;;;2085658;28;20237;-53
2023/11/09 00:21:57;;;;;;;53.50;37.88;;;;;22.10;99349.00;;;;2084278;28;20233;-53
2023/11/09 00:22:58;;;;;;;49.73;35.37;;;;;22.00;99350.00;;;;2074961;28;20236;-53
2023/11/09 00:23:58;;;;;;;47.23;33.83;;;;;22.00;99340.00;;;;2094130;28;20263;-55
2023/11/09 00:24:59;;;;;;;47.73;30.53;;;;;22.00;99351.00;;;;2090341;28;20278;-52
2023/11/09 00:26:01;;;;;;;44.00;31.50;;;;;22.00;99345.00;;;;2086144;28;20217;-52
2023/11/09 00:27:01;;;;;;;46.97;30.95;;;;;21.50;99338.00;;;;2078302;28;21111;-52
2023/11/09 00:28:03;;;;;;;47.90;30.10;;;;;22.00;99355.00;;;;2074615;28;20232;-53
2023/11/09 00:29:03;;;;;;;39.65;27.52;;;;;22.00;99328.00;;;;2090676;28;20228;-52
2023/11/09 00:30:06;;;;;;;40.50;27.80;;;;;22.00;99333.00;;;;2086486;28;20224;-53
2023/11/09 00:31:06;;;;;;;37.67;26.58;;;;;22.00;99336.00;;;;2086296;28;20216;-53
2023/11/09 00:32:07;;;;;;;36.73;26.30;;;;;22.00;99333.00;;;;2085218;28;20258;-53
2023/11/09 00:33:07;;;;;;;36.83;27.03;;;;;22.00;99331.00;;;;2076107;28;20224;-53
2023/11/09 00:34:09;;;;;;;39.27;27.60;;;;;22.00;99381.00;;;;2093554;28;20580;-53
2023/11/09 00:35:10;;;;;;;35.40;25.35;;;;;22.00;99326.00;;;;2085720;28;20600;-53
2023/11/09 00:36:10;;;;;;;34.50;25.60;;;;;22.00;99323.00;;;;2078134;28;20229;-53
2023/11/09 00:37:10;;;;;;;36.57;24.43;;;;;22.00;99330.00;;;;2081961;28;20791;-53
2023/11/09 00:38:14;;;;;;;30.13;21.90;;;;;22.00;99326.00;;;;2079244;28;20309;-53
2023/11/09 00:39:17;;;;;;;32.28;23.20;;;;;22.00;99318.00;;;;2085887;28;20221;-52
2023/11/09 00:40:17;;;;;;;30.45;21.42;;;;;22.00;99327.00;;;;2084054;28;20303;-52
2023/11/09 00:41:18;;;;;;;30.10;21.83;;;;;22.00;99318.00;;;;2085506;28;20643;-52
2023/11/09 00:42:19;;;;;;;32.03;21.60;;;;;22.00;99322.00;;;;2080236;28;20213;-52
2023/11/09 00:43:19;;;;;;;32.20;21.40;;;;;22.00;99307.00;;;;2077934;28;20259;-52
2023/11/09 00:44:19;;;;;;;31.20;20.73;;;;;22.00;99308.00;;;;2091116;28;20695;-54
2023/11/09 00:45:20;;;;;;;27.27;20.60;;;;;22.00;99313.00;;;;2085660;28;20205;-54
2023/11/09 00:46:20;;;;;;;28.20;19.70;;;;;22.00;99324.00;;;;2084474;28;20273;-52
2023/11/09 00:47:21;;;;;;;28.43;18.93;;;;;22.00;99308.00;;;;2084952;28;20918;-52
2023/11/09 00:48:21;;;;;;;28.77;19.90;;;;;22.00;99307.00;;;;2076459;28;20661;-53
2023/11/09 00:49:21;;;;;;;28.17;20.00;;;;;22.00;99307.00;;;;2085319;28;21232;-53
2023/11/09 00:50:22;;;;;;;26.87;19.10;;;;;22.00;99295.00;;;;2085999;28;20689;-54
2023/11/09 00:51:22;;;;;;;25.90;18.83;;;;;22.00;99305.00;;;;2083860;28;20700;-54
2023/11/09 00:52:23;;;;;;;26.43;18.07;;;;;22.00;99307.00;;;;2084568;28;20204;-53
2023/11/09 00:53:23;;;;;;;26.17;18.60;;;;;22.00;99297.00;;;;2075143;28;20707;-53
2023/11/09 00:54:23;;;;;;;26.70;18.60;;;;;22.00;99290.00;;;;2084562;28;20354;-54
2023/11/09 00:55:24;;;;;;;23.73;17.17;;;;;22.00;99289.00;;;;2084906;28;20708;-54
2023/11/09 00:56:24;;;;;;;26.60;18.07;;;;;22.10;99296.00;;;;2084501;28;20762;-53
2023/11/09 00:57:26;;;;;;;25.93;18.83;;;;;22.00;99297.00;;;;2085095;28;20205;-53
2023/11/09 00:58:26;;;;;;;28.45;17.08;;;;;22.00;99288.00;;;;2074111;28;20216;-53
2023/11/09 00:59:27;;;;;;;24.37;15.73;;;;;22.00;99285.00;;;;2085833;28;20197;-53
2023/11/09 01:00:27;;;;;;;24.23;16.70;;;;;22.10;99279.00;;;;2084054;28;20720;-51
2023/11/09 01:01:27;;;;;;;22.40;15.90;;;;;22.00;99270.00;;;;2085176;28;20201;-52
2023/11/09 01:02:34;;;;;;;22.27;15.93;;;;;22.00;99281.00;;;;2082411;28;20653;-53
2023/11/09 01:03:34;;;;;;;21.17;15.40;;;;;22.00;99276.00;;;;2075773;28;20217;-53
2023/11/09 01:04:35;;;;;;;22.00;16.80;;;;;22.00;99274.00;;;;2084796;28;20225;-53
2023/11/09 01:05:35;;;;;;;22.10;15.20;;;;;22.00;99267.00;;;;2082011;28;20220;-51
2023/11/09 01:06:36;;;;;;;25.23;16.37;;;;;22.00;99269.00;;;;2085850;28;20521;-53
2023/11/09 01:07:36;;;;;;;29.13;15.83;;;;;22.00;99267.00;;;;2074640;28;20225;-52
2023/11/09 01:08:37;;;;;;;23.80;14.20;;;;;22.00;99261.00;;;;2081024;28;20239;-51
2023/11/09 01:09:40;;;;;;;20.47;15.37;;;;;21.90;99264.00;;;;2085458;28;20228;-51
2023/11/09 01:10:43;;;;;;;19.63;12.77;;;;;21.90;99274.00;;;;2085028;28;20236;-52
2023/11/09 01:11:45;;;;;;;18.65;13.73;;;;;21.30;99257.00;;;;2083492;28;20993;-53
2023/11/09 01:12:45;;;;;;;17.85;13.38;;;;;21.90;99251.00;;;;2068090;28;20220;-53
2023/11/09 01:13:45;;;;;;;15.90;12.23;;;;;21.90;99289.00;;;;2085634;28;20216;-54
2023/11/09 01:14:46;;;;;;;16.70;12.70;;;;;21.80;99250.00;;;;2085723;28;20624;-51
2023/11/09 01:15:46;;;;;;;19.60;13.53;;;;;21.80;99252.00;;;;2084849;28;20592;-52
2023/11/09 01:16:47;;;;;;;18.07;13.20;;;;;21.80;99253.00;;;;2085374;28;20612;-52
2023/11/09 01:18:04;;;;;;;17.02;12.55;;;;;21.80;99250.00;;;;2072869;28;20267;-53
2023/11/09 01:19:04;;;;;;;17.55;13.48;;;;;21.80;99245.00;;;;2085684;28;20219;-52
2023/11/09 01:20:05;;;;;;;17.90;12.00;;;;;21.80;99248.00;;;;2085245;28;20300;-52
2023/11/09 01:21:05;;;;;;;18.07;12.70;;;;;21.80;99247.00;;;;2085698;28;20842;-52
2023/11/09 01:22:06;;;;;;;18.70;12.40;;;;;21.80;99241.00;;;;2083295;28;20213;-52
2023/11/09 01:23:11;;;;;;;16.20;12.30;;;;;21.80;99241.00;;;;2073605;28;20208;-52
2023/11/09 01:24:12;;;;;;;19.23;12.75;;;;;21.80;99237.00;;;;2083599;28;20275;-52
2023/11/09 01:25:12;;;;;;;17.40;11.60;;;;;21.80;99241.00;;;;2084775;28;20279;-53
2023/11/09 01:26:13;;;;;;;17.20;12.47;;;;;21.80;99244.00;;;;2083956;28;20225;-52
2023/11/09 01:27:13;;;;;;;14.15;10.80;;;;;21.80;99242.00;;;;2083117;28;20225;-53
2023/11/09 01:28:14;;;;;;;16.13;11.30;;;;;21.70;99242.00;;;;2072492;28;20310;-52
2023/11/09 01:29:15;;;;;;;14.63;11.00;;;;;21.80;99238.00;;;;2078937;28;20259;-51
2023/11/09 01:30:15;;;;;;;15.30;9.93;;;;;21.70;99227.00;;;;2085259;28;21015;-59
2023/11/09 01:31:16;;;;;;;12.60;9.23;;;;;21.70;99228.00;;;;2085626;28;20830;-53
2023/11/09 01:32:16;;;;;;;15.80;10.80;;;;;21.70;99224.00;;;;2080487;28;20223;-53
2023/11/09 01:33:16;;;;;;;14.23;10.80;;;;;21.70;99227.00;;;;2075188;28;20205;-51
2023/11/09 01:34:18;;;;;;;13.30;9.83;;;;;21.70;99219.00;;;;2084804;28;20319;-52
2023/11/09 01:35:18;;;;;;;13.88;10.05;;;;;21.80;99227.00;;;;2085729;28;20216;-53
2023/11/09 01:36:19;;;;;;;12.87;9.17;;;;;21.70;99215.00;;;;2084203;28;20883;-51
2023/11/09 01:37:20;;;;;;;12.10;9.27;;;;;21.70;99217.00;;;;2082859;28;20251;-52
2023/11/09 01:38:20;;;;;;;11.82;9.32;;;;;21.70;99222.00;;;;2075757;28;20209;-54
2023/11/09 01:39:22;;;;;;;13.90;8.93;;;;;21.70;99216.00;;;;2084359;28;20720;-52
2023/11/09 01:40:26;;;;;;;12.40;9.05;;;;;21.70;99219.00;;;;2085423;28;20215;-52
2023/11/09 01:41:26;;;;;;;11.65;9.02;;;;;21.70;99221.00;;;;2082834;28;20299;-53
2023/11/09 01:42:27;;;;;;;13.50;8.47;;;;;21.70;99226.00;;;;2084998;28;20512;-53
2023/11/09 01:43:27;;;;;;;11.63;8.70;;;;;21.60;99212.00;;;;2075669;28;20224;-52
2023/11/09 01:44:28;;;;;;;12.90;8.70;;;;;21.60;99216.00;;;;2080246;28;20299;-51
2023/11/09 01:45:28;;;;;;;10.73;8.70;;;;;21.60;99212.00;;;;2080668;28;20296;-52
2023/11/09 01:46:28;;;;;;;11.07;8.27;;;;;21.60;99191.00;;;;2081730;28;20213;-53
2023/11/09 01:47:28;;;;;;;12.60;8.30;;;;;21.60;99208.00;;;;2083925;28;20550;-53
2023/11/09 01:48:29;;;;;;;13.13;9.13;;;;;21.60;99207.00;;;;2071987;28;20224;-53
2023/11/09 01:49:30;;;;;;;10.30;7.90;;;;;21.70;99213.00;;;;2076248;28;20279;-54
2023/11/09 01:50:31;;;;;;;11.23;8.50;;;;;21.70;99214.00;;;;2085418;28;20209;-52
2023/11/09 01:51:31;;;;;;;9.63;7.60;;;;;21.70;99208.00;;;;2084132;28;20212;-51
2023/11/09 01:52:32;;;;;;;9.80;7.33;;;;;21.60;99202.00;;;;2083434;28;20212;-52
2023/11/09 01:53:32;;;;;;;9.33;6.60;;;;;21.60;99179.00;;;;2075753;28;20228;-52
2023/11/09 01:54:33;;;;;;;10.77;7.70;;;;;21.60;99205.00;;;;2070112;28;20237;-53
2023/11/09 01:55:33;;;;;;;11.30;7.65;;;;;21.60;99204.00;;;;2080455;28;21167;-52
2023/11/09 01:56:35;;;;;;;11.57;7.93;;;;;21.60;99199.00;;;;2081830;28;20216;-52
2023/11/09 01:57:35;;;;;;;9.25;6.70;;;;;21.60;99206.00;;;;2064513;28;20613;-53
2023/11/09 01:58:36;;;;;;;7.37;6.30;;;;;21.60;99228.00;;;;2077351;28;20304;-52
2023/11/09 01:59:38;;;;;;;9.13;7.40;;;;;21.60;99199.00;;;;2071093;28;20599;-51
2023/11/09 02:00:38;;;;;;;9.48;6.60;;;;;21.60;99199.00;;;;2070730;28;20253;-54
2023/11/09 02:01:39;;;;;;;8.90;6.80;;;;;21.60;99202.00;;;;2074556;28;20205;-53
2023/11/09 02:02:39;;;;;;;10.50;6.87;;;;;21.50;99203.00;;;;2055670;28;20210;-54
2023/11/09 02:03:43;;;;;;;10.70;6.80;;;;;21.50;99193.00;;;;2079411;28;20215;-53
2023/11/09 02:04:46;;;;;;;7.78;5.82;;;;;21.50;99202.00;;;;2085276;28;20683;-54
2023/11/09 02:05:47;;;;;;;9.13;6.45;;;;;21.50;99200.00;;;;2083550;28;20304;-52
2023/11/09 02:06:48;;;;;;;8.67;5.97;;;;;21.50;99194.00;;;;2084864;28;20217;-52
2023/11/09 02:07:48;;;;;;;8.57;5.77;;;;;21.50;99194.00;;;;2071128;28;20271;-52
2023/11/09 02:08:48;;;;;;;8.10;5.97;;;;;21.50;99200.00;;;;2066462;28;20831;-54
2023/11/09 02:09:49;;;;;;;7.40;6.07;;;;;21.50;99199.00;;;;2067177;28;20246;-52
2023/11/09 02:10:49;;;;;;;7.50;5.77;;;;;21.50;99189.00;;;;2073479;28;20232;-53
2023/11/09 02:11:49;;;;;;;7.90;6.13;;;;;21.50;99193.00;;;;2078686;28;20213;-53
2023/11/09 02:12:50;;;;;;;8.30;5.63;;;;;21.50;99192.00;;;;2073388;28;20205;-58
2023/11/09 02:13:50;;;;;;;9.17;5.10;;;;;21.50;99174.00;;;;2073239;28;20268;-55
2023/11/09 02:14:50;;;;;;;6.40;5.00;;;;;21.50;99187.00;;;;2082962;28;20232;-54
2023/11/09 02:15:52;;;;;;;7.43;5.20;;;;;21.50;99182.00;;;;2075583;28;20217;-51
2023/11/09 02:16:53;;;;;;;8.13;5.47;;;;;21.50;99148.00;;;;2074048;28;20389;-53
2023/11/09 02:17:53;;;;;;;8.43;6.03;;;;;21.50;99181.00;;;;2066666;28;20742;-51
2023/11/09 02:18:54;;;;;;;7.90;5.47;;;;;21.50;99174.00;;;;2084238;28;20262;-53
2023/11/09 02:19:54;;;;;;;6.17;4.83;;;;;21.50;99221.00;;;;2082597;28;20361;-53
2023/11/09 02:20:54;;;;;;;7.37;5.13;;;;;21.50;99162.00;;;;2083865;28;20212;-50
2023/11/09 02:21:55;;;;;;;7.33;5.93;;;;;21.50;99161.00;;;;2072369;28;20205;-52
2023/11/09 02:22:55;;;;;;;7.13;5.20;;;;;21.50;99171.00;;;;2074467;28;20235;-51
2023/11/09 02:23:55;;;;;;;7.77;5.40;;;;;21.50;99169.00;;;;2084735;28;20213;-51
2023/11/09 02:24:56;;;;;;;6.60;5.10;;;;;21.40;99165.00;;;;2074062;28;20216;-52
2023/11/09 02:25:56;;;;;;;5.93;4.10;;;;;21.40;99157.00;;;;2074226;28;20213;-53
2023/11/09 02:26:57;;;;;;;7.40;5.10;;;;;21.40;99155.00;;;;2072121;28;20296;-53
2023/11/09 02:27:57;;;;;;;5.70;4.93;;;;;21.40;99157.00;;;;2074249;28;20320;-53
2023/11/09 02:28:58;;;;;;;6.80;4.73;;;;;21.40;99159.00;;;;2084033;28;20440;-51
2023/11/09 02:29:58;;;;;;;6.90;4.40;;;;;21.40;99166.00;;;;2084680;28;20625;-52
2023/11/09 02:30:58;;;;;;;6.70;4.90;;;;;21.40;99148.00;;;;2085286;28;20689;-53
2023/11/09 02:32:00;;;;;;;5.40;3.87;;;;;21.50;99160.00;;;;2083513;28;20767;-53
2023/11/09 02:33:03;;;;;;;4.80;3.90;;;;;21.50;99173.00;;;;2072217;28;20332;-52
2023/11/09 02:34:05;;;;;;;5.70;4.38;;;;;21.40;99156.00;;;;2080445;28;20216;-51
2023/11/09 02:35:06;;;;;;;5.43;3.65;;;;;21.40;99147.00;;;;2077169;28;20348;-51
2023/11/09 02:36:06;;;;;;;4.87;3.73;;;;;21.40;99144.00;;;;2081111;28;20247;-51
2023/11/09 02:37:07;;;;;;;6.30;4.63;;;;;21.40;99156.00;;;;2072288;28;20561;-52
2023/11/09 02:38:11;;;;;;;5.10;4.35;;;;;21.50;99144.00;;;;2074821;28;20247;-51
2023/11/09 02:39:12;;;;;;;5.13;3.67;;;;;21.40;99149.00;;;;2082956;28;20222;-53
2023/11/09 02:40:12;;;;;;;6.07;3.83;;;;;21.40;99148.00;;;;2083530;28;20222;-51
2023/11/09 02:41:13;;;;;;;6.00;4.03;;;;;21.40;99147.00;;;;2084201;28;20275;-52
2023/11/09 02:42:13;;;;;;;4.20;3.33;;;;;21.50;99141.00;;;;2083683;28;20228;-52
2023/11/09 02:43:13;;;;;;;6.13;3.77;;;;;21.40;99141.00;;;;2074876;28;20279;-52
2023/11/09 02:44:14;;;;;;;8.10;4.07;;;;;21.40;99141.00;;;;2084169;28;20312;-53
2023/11/09 02:45:14;;;;;;;5.30;3.70;;;;;21.40;99178.00;;;;2084882;28;20212;-54
2023/11/09 02:46:14;;;;;;;5.70;4.30;;;;;21.40;99140.00;;;;2084215;28;20213;-51
2023/11/09 02:47:15;;;;;;;4.50;3.40;;;;;21.40;99132.00;;;;2084000;28;20221;-52
2023/11/09 02:48:15;;;;;;;5.43;3.37;;;;;21.40;99128.00;;;;2072981;28;20221;-53
2023/11/09 02:49:16;;;;;;;5.20;3.47;;;;;21.30;99142.00;;;;2082089;28;20298;-53
2023/11/09 02:50:16;;;;;;;4.73;3.20;;;;;21.40;99137.00;;;;2076480;28;20789;-52
2023/11/09 02:51:16;;;;;;;4.33;3.47;;;;;21.40;99130.00;;;;2083398;28;20714;-53
2023/11/09 02:52:17;;;;;;;6.13;3.47;;;;;21.40;99129.00;;;;2084704;28;20719;-51
2023/11/09 02:53:17;;;;;;;5.07;3.40;;;;;21.40;99132.00;;;;2074349;28;20219;-51
2023/11/09 02:54:18;;;;;;;7.17;3.17;;;;;21.40;99130.00;;;;2081513;28;20227;-52
2023/11/09 02:55:19;;;;;;;3.38;2.97;;;;;21.40;98984.00;;;;2084217;28;20217;-52
2023/11/09 02:56:20;;;;;;;3.97;2.60;;;;;21.40;99130.00;;;;2084593;28;20251;-52
2023/11/09 02:57:20;;;;;;;3.28;2.42;;;;;21.30;99124.00;;;;2083300;28;20596;-53
2023/11/09 02:58:21;;;;;;;4.63;3.00;;;;;21.40;99125.00;;;;2070253;28;20299;-53
2023/11/09 02:59:21;;;;;;;5.07;3.60;;;;;21.40;99127.00;;;;2082395;28;20255;-51
2023/11/09 03:00:21;;;;;;;3.97;2.93;;;;;21.30;99119.00;;;;2081447;28;20228;-51
2023/11/09 03:01:22;;;;;;;3.50;2.70;;;;;21.30;99119.00;;;;2085180;28;20295;-53
2023/11/09 03:02:23;;;;;;;3.00;2.40;;;;;21.30;99119.00;;;;2081337;28;20227;-53
2023/11/09 03:03:23;;;;;;;5.10;2.70;;;;;21.40;99116.00;;;;2074796;28;20216;-53
2023/11/09 03:04:23;;;;;;;3.10;2.47;;;;;21.40;99113.00;;;;2084248;28;20216;-51
2023/11/09 03:05:26;;;;;;;3.80;2.67;;;;;21.40;99104.00;;;;2084130;28;20332;-52
2023/11/09 03:06:27;;;;;;;4.45;2.85;;;;;21.30;99106.00;;;;2083244;28;20228;-55
2023/11/09 03:07:27;;;;;;;4.10;2.73;;;;;21.30;99115.00;;;;2082950;28;20259;-55
2023/11/09 03:08:28;;;;;;;2.80;2.10;;;;;21.30;99101.00;;;;2075515;28;20738;-54
2023/11/09 03:09:28;;;;;;;4.67;2.97;;;;;21.30;99101.00;;;;2084150;28;20216;-53
2023/11/09 03:10:29;;;;;;;3.30;2.40;;;;;21.30;99093.00;;;;2084958;28;20460;-53
2023/11/09 03:11:29;;;;;;;4.10;2.70;;;;;21.30;99086.00;;;;2084858;28;20818;-53
2023/11/09 03:12:30;;;;;;;4.07;2.63;;;;;21.40;99090.00;;;;2083538;28;20278;-53
2023/11/09 03:13:31;;;;;;;2.80;2.13;;;;;21.30;99098.00;;;;2075403;28;20651;-52
2023/11/09 03:14:33;;;;;;;3.20;2.50;;;;;21.30;99089.00;;;;2084464;28;20241;-51
2023/11/09 03:15:34;;;;;;;3.08;2.20;;;;;21.30;99092.00;;;;2085225;28;20456;-53
2023/11/09 03:16:34;;;;;;;4.07;2.80;;;;;21.30;99089.00;;;;2083917;28;20212;-52
2023/11/09 03:17:38;;;;;;;3.53;2.40;;;;;21.30;99092.00;;;;2072970;28;20221;-52
2023/11/09 03:18:41;;;;;;;4.30;2.95;;;;;21.30;99082.00;;;;2085073;28;20320;-53
2023/11/09 03:19:41;;;;;;;3.30;2.13;;;;;21.20;99082.00;;;;2083436;28;20224;-53
2023/11/09 03:20:41;;;;;;;4.73;2.83;;;;;21.30;99078.00;;;;2081246;28;20248;-51
2023/11/09 03:21:42;;;;;;;3.27;2.33;;;;;21.30;99088.00;;;;2083531;28;20303;-51
2023/11/09 03:22:43;;;;;;;2.47;2.10;;;;;21.30;99088.00;;;;2074289;28;21107;-53
2023/11/09 03:23:44;;;;;;;3.60;2.90;;;;;21.30;99088.00;;;;2084859;28;20225;-53
2023/11/09 03:24:44;;;;;;;3.33;2.25;;;;;21.30;99081.00;;;;2084345;28;20904;-53
2023/11/09 03:25:45;;;;;;;2.90;2.30;;;;;21.30;99085.00;;;;2084726;28;20270;-51
2023/11/09 03:26:46;;;;;;;2.97;2.40;;;;;21.30;99083.00;;;;2083560;28;20343;-52
2023/11/09 03:27:47;;;;;;;4.00;2.22;;;;;21.30;99077.00;;;;2074737;28;20278;-52
2023/11/09 03:28:47;;;;;;;2.90;2.00;;;;;21.20;99074.00;;;;2083687;28;20298;-52
2023/11/09 03:29:47;;;;;;;2.50;1.80;;;;;21.20;99073.00;;;;2085629;28;20220;-53
2023/11/09 03:30:48;;;;;;;3.07;2.07;;;;;21.30;99076.00;;;;2084702;28;20224;-51
2023/11/09 03:31:48;;;;;;;3.00;2.40;;;;;21.20;99077.00;;;;2083578;28;20215;-53
2023/11/09 03:32:48;;;;;;;3.67;2.17;;;;;21.20;99077.00;;;;2073534;28;20834;-55
2023/11/09 03:33:49;;;;;;;2.50;1.73;;;;;21.30;99073.00;;;;2083082;28;20598;-54
2023/11/09 03:34:49;;;;;;;2.67;2.27;;;;;21.30;99071.00;;;;2078746;28;20884;-51
2023/11/09 03:35:49;;;;;;;2.90;2.10;;;;;21.30;99064.00;;;;2084920;28;21305;-51
2023/11/09 03:36:52;;;;;;;3.63;1.80;;;;;21.20;99068.00;;;;2086325;28;20615;-54
2023/11/09 03:37:52;;;;;;;3.15;1.58;;;;;21.20;99072.00;;;;2076656;28;20213;-54
2023/11/09 03:38:53;;;;;;;4.10;2.00;;;;;21.20;99071.00;;;;2085815;28;20738;-54
2023/11/09 03:39:55;;;;;;;3.50;1.93;;;;;21.20;99073.00;;;;2086782;28;20635;-53
2023/11/09 03:40:55;;;;;;;2.63;2.13;;;;;21.20;99066.00;;;;2085232;28;20212;-54
2023/11/09 03:41:55;;;;;;;2.70;1.93;;;;;21.20;99069.00;;;;2086611;28;20700;-50
2023/11/09 03:42:56;;;;;;;2.60;1.73;;;;;21.20;99058.00;;;;2072052;28;20230;-53
2023/11/09 03:43:56;;;;;;;2.67;1.60;;;;;21.20;99065.00;;;;2084784;28;20220;-53
2023/11/09 03:44:57;;;;;;;2.53;1.60;;;;;21.20;99066.00;;;;2086952;28;20689;-54
2023/11/09 03:45:59;;;;;;;2.47;1.83;;;;;21.20;99059.00;;;;2084617;28;20243;-51
2023/11/09 03:46:59;;;;;;;3.35;2.08;;;;;21.20;99068.00;;;;2085551;28;20959;-53
2023/11/09 03:48:00;;;;;;;2.63;1.70;;;;;21.20;99062.00;;;;2075881;28;20231;-49
2023/11/09 03:49:02;;;;;;;1.97;1.33;;;;;21.20;99068.00;;;;2086829;28;20235;-50
2023/11/09 03:50:04;;;;;;;1.80;1.50;;;;;21.20;99066.00;;;;2084523;28;20220;-52
2023/11/09 03:51:04;;;;;;;2.75;1.80;;;;;21.20;99066.00;;;;2087243;28;20241;-53
2023/11/09 03:52:05;;;;;;;5.23;2.77;;;;;21.20;99055.00;;;;2085739;28;20260;-53
2023/11/09 03:53:05;;;;;;;2.60;1.60;;;;;21.20;99058.00;;;;2071259;28;20221;-53
2023/11/09 03:54:05;;;;;;;2.37;1.80;;;;;21.20;99054.00;;;;2076489;28;20288;-52
2023/11/09 03:55:07;;;;;;;2.20;1.50;;;;;21.20;99062.00;;;;2077810;28;20206;-53
2023/11/09 03:56:07;;;;;;;2.00;1.60;;;;;21.20;99059.00;;;;2086527;28;20204;-53
2023/11/09 03:57:08;;;;;;;3.07;1.70;;;;;21.20;99084.00;;;;2083318;28;20220;-53
2023/11/09 03:58:09;;;;;;;2.63;1.60;;;;;21.20;99085.00;;;;2074863;28;20246;-51
2023/11/09 03:59:09;;;;;;;2.80;1.70;;;;;21.20;99072.00;;;;2085856;28;20261;-52
2023/11/09 04:00:13;;;;;;;2.30;1.43;;;;;21.20;99068.00;;;;2085486;28;20212;-52
2023/11/09 04:01:13;;;;;;;2.70;1.70;;;;;21.20;99069.00;;;;2086445;28;20216;-53
2023/11/09 04:02:14;;;;;;;2.43;1.30;;;;;21.20;99061.00;;;;2085367;28;20638;-53
2023/11/09 04:03:14;;;;;;;2.90;1.30;;;;;21.20;99062.00;;;;2081566;28;20220;-53
2023/11/09 04:04:14;;;;;;;2.73;1.40;;;;;21.20;99065.00;;;;2091545;28;20287;-54
2023/11/09 04:05:15;;;;;;;1.90;1.50;;;;;21.20;99066.00;;;;2086305;28;20224;-51
2023/11/09 04:06:16;;;;;;;2.60;1.50;;;;;21.20;99059.00;;;;2086230;28;20254;-52
2023/11/09 04:07:16;;;;;;;3.63;1.83;;;;;21.20;99063.00;;;;2084035;28;20223;-53
2023/11/09 04:08:17;;;;;;;2.10;1.30;;;;;21.20;99054.00;;;;2069855;28;21111;-53
2023/11/09 04:09:18;;;;;;;2.33;1.33;;;;;21.20;99062.00;;;;2081408;28;20209;-51
2023/11/09 04:10:19;;;;;;;2.42;1.20;;;;;21.20;99065.00;;;;2081159;28;20225;-52
2023/11/09 04:11:20;;;;;;;2.43;1.60;;;;;21.20;99061.00;;;;2078031;28;20221;-51
2023/11/09 04:12:21;;;;;;;1.90;1.30;;;;;21.10;99053.00;;;;2084385;28;20759;-52
2023/11/09 04:13:21;;;;;;;1.70;1.20;;;;;21.20;99062.00;;;;2082216;28;20216;-51
2023/11/09 04:14:21;;;;;;;2.20;1.30;;;;;21.10;99056.00;;;;2092151;28;20337;-52
2023/11/09 04:15:22;;;;;;;2.30;1.50;;;;;21.10;99060.00;;;;2082092;28;20303;-51
2023/11/09 04:16:22;;;;;;;2.23;1.40;;;;;21.10;99062.00;;;;2082153;28;20213;-53
2023/11/09 04:17:23;;;;;;;2.77;1.40;;;;;21.20;99061.00;;;;2083890;28;20217;-54
2023/11/09 04:18:23;;;;;;;1.40;1.10;;;;;21.20;99049.00;;;;2076622;28;20217;-54
2023/11/09 04:19:23;;;;;;;1.30;1.00;;;;;21.10;99055.00;;;;2085731;28;20228;-51
2023/11/09 04:20:24;;;;;;;1.40;0.87;;;;;21.20;99061.00;;;;2084058;28;20220;-51
2023/11/09 04:21:24;;;;;;;2.60;1.60;;;;;21.10;99052.00;;;;2082983;28;20295;-54
2023/11/09 04:22:25;;;;;;;3.10;0.90;;;;;21.10;99056.00;;;;2085761;28;20795;-54
2023/11/09 04:23:25;;;;;;;2.80;1.20;;;;;21.10;99041.00;;;;2076421;28;20346;-53
2023/11/09 04:24:26;;;;;;;1.50;1.00;;;;;21.10;99040.00;;;;2085652;28;20637;-51
2023/11/09 04:25:26;;;;;;;1.97;1.27;;;;;21.10;99055.00;;;;2085667;28;20217;-51
2023/11/09 04:26:27;;;;;;;1.43;0.97;;;;;21.10;99052.00;;;;2085626;28;20271;-50
2023/11/09 04:27:27;;;;;;;2.50;1.10;;;;;21.10;99048.00;;;;2084753;28;21319;-52
2023/11/09 04:28:32;;;;;;;2.70;1.33;;;;;21.10;99048.00;;;;2075759;28;20831;-52
2023/11/09 04:29:33;;;;;;;1.98;1.33;;;;;21.10;99055.00;;;;2075880;28;20221;-53
2023/11/09 04:30:33;;;;;;;1.47;1.00;;;;;21.10;99050.00;;;;2078481;28;20252;-53
2023/11/09 04:31:36;;;;;;;1.93;1.13;;;;;21.10;99053.00;;;;2085402;28;20220;-52
2023/11/09 04:32:38;;;;;;;1.98;1.40;;;;;21.10;99052.00;;;;2075057;28;20228;-53
2023/11/09 04:33:39;;;;;;;1.40;0.90;;;;;21.10;99055.00;;;;2084270;28;20286;-52
2023/11/09 04:34:44;;;;;;;2.10;1.10;;;;;21.10;99051.00;;;;2086477;28;20221;-54
2023/11/09 04:35:46;;;;;;;3.20;1.25;;;;;21.10;99059.00;;;;2083920;28;20244;-51
2023/11/09 04:36:49;;;;;;;4.03;0.80;;;;;21.10;99053.00;;;;2084781;28;20224;-50
2023/11/09 04:37:54;;;;;;;1.50;1.00;;;;;20.30;99067.00;;;;2074863;28;20217;-55
2023/11/09 04:38:55;;;;;;;3.60;1.45;;;;;21.10;99062.00;;;;2083948;28;20307;-50
2023/11/09 04:39:58;;;;;;;1.90;1.03;;;;;21.10;99062.00;;;;2086181;28;20294;-54
2023/11/09 04:41:03;;;;;;;1.58;1.15;;;;;21.10;99059.00;;;;2085798;28;20471;-52
2023/11/09 04:42:04;;;;;;;1.42;0.80;;;;;21.10;99053.00;;;;2083188;28;20669;-53
2023/11/09 04:43:06;;;;;;;1.67;1.37;;;;;21.10;99055.00;;;;2078298;28;20336;-54
2023/11/09 04:44:09;;;;;;;1.58;1.00;;;;;21.10;99053.00;;;;2094024;28;20235;-54
2023/11/09 04:45:13;;;;;;;1.48;1.02;;;;;21.10;99063.00;;;;2089055;28;20267;-53
2023/11/09 04:46:17;;;;;;;1.63;0.80;;;;;21.00;99055.00;;;;2083483;28;20212;-53
2023/11/09 04:47:24;;;;;;;1.40;0.90;;;;;21.10;99064.00;;;;2084248;28;20263;-50
2023/11/09 04:48:31;;;;;;;1.80;1.08;;;;;21.10;99063.00;;;;2065071;28;21225;-51
2023/11/09 04:49:31;;;;;;;2.58;1.40;;;;;21.10;99048.00;;;;2081515;28;21062;-51
2023/11/09 04:50:31;;;;;;;1.53;0.80;;;;;21.10;99056.00;;;;2083378;28;20224;-54
2023/11/09 04:51:32;;;;;;;1.70;1.00;;;;;21.10;99049.00;;;;2080126;28;20228;-53
2023/11/09 04:52:33;;;;;;;1.53;1.10;;;;;21.10;99048.00;;;;2083764;28;20220;-52
2023/11/09 04:53:41;;;;;;;1.80;1.00;;;;;21.10;99049.00;;;;2077289;28;20664;-52
2023/11/09 04:54:45;;;;;;;2.15;0.75;;;;;21.10;99056.00;;;;2084693;28;20209;-52
2023/11/09 04:55:57;;;;;;;2.03;1.15;;;;;21.10;99053.00;;;;2085267;28;20388;-52
2023/11/09 04:58:34;;;;;;;1.63;0.80;;;;;21.10;99050.00;;;;2083532;28;20212;-52
2023/11/09 05:07:22;;;;;;;2.85;1.00;;;;;21.00;99047.00;;;;2079801;28;20244;-52
2023/11/09 05:08:23;;;;;;;1.80;0.80;;;;;21.00;99043.00;;;;2069656;28;20344;-52
2023/11/09 05:09:24;;;;;;;1.30;0.90;;;;;21.00;99058.00;;;;2076166;28;20637;-52
2023/11/09 05:10:24;;;;;;;1.60;0.80;;;;;21.00;99058.00;;;;2079646;28;20303;-52
2023/11/09 05:11:25;;;;;;;1.40;0.77;;;;;21.10;99059.00;;;;2078688;28;20461;-53
2023/11/09 05:12:25;;;;;;;1.73;1.10;;;;;21.00;99064.00;;;;2078984;28;20352;-52